Time;durP1;ratioP1;P1;durP2;ratioP2;P2;SDS_P1;SDS_P2;PMS_P1;PMS_P2;Temp;Humidity;BMP_temperature;BMP_pressure;BME280_temperature;BME280_humidity;BME280_pressure;Samples;Min_cycle;Max_cycle;Signal;HPM_P1;HPM_P2
2021/12/04 00:01:40;;;;;;;;;0.00;0.00;;;;;10.97;88.32;99484.88;4941309;28;45418;-55
2021/12/04 00:04:06;;;;;;;;;0.00;0.00;;;;;11.02;87.52;99473.81;4936866;28;45378;-55
2021/12/04 00:06:37;;;;;;;;;0.50;0.00;;;;;11.08;87.71;99466.19;4941226;28;45879;-55
2021/12/04 00:09:04;;;;;;;;;0.00;0.00;;;;;11.09;88.22;99462.56;4941301;28;45385;-55
2021/12/04 00:11:30;;;;;;;;;0.75;0.00;;;;;11.09;88.38;99456.34;4941364;28;45269;-56
2021/12/04 00:13:56;;;;;;;;;1.00;0.00;;;;;11.07;88.47;99458.25;4941312;28;45630;-52
2021/12/04 00:16:21;;;;;;;;;0.00;0.00;;;;;11.16;88.54;99455.81;4940777;28;45234;-52
2021/12/04 00:18:47;;;;;;;;;0.00;0.00;;;;;11.19;88.38;99442.19;4941309;28;45353;-55
2021/12/04 00:21:12;;;;;;;;;0.00;0.00;;;;;11.23;87.91;99435.63;4941435;28;45247;-55
2021/12/04 00:23:37;;;;;;;;;0.00;0.00;;;;;11.23;88.00;99440.13;4941210;28;45292;-56
2021/12/04 00:26:04;;;;;;;;;0.00;0.00;;;;;11.28;88.21;99440.69;4940976;28;45466;-55
2021/12/04 00:28:30;;;;;;;;;0.00;0.00;;;;;11.30;88.06;99436.09;4941349;28;45397;-53
2021/12/04 05:32:01;;;;;;;;;0.00;0.00;;;;;12.55;79.31;99402.84;5147149;23;45655;-55
2021/12/04 05:34:27;;;;;;;;;1.00;0.00;;;;;12.50;78.99;99393.25;4950956;28;45229;-54
2021/12/04 05:36:52;;;;;;;;;0.00;0.00;;;;;12.48;78.97;99389.88;4949194;28;45887;-56
2021/12/04 05:39:18;;;;;;;;;1.00;0.00;;;;;12.61;79.60;99400.53;4943586;28;45169;-55
2021/12/04 05:41:43;;;;;;;;;0.00;0.00;;;;;12.49;79.22;99367.38;4943502;28;45546;-56
2021/12/04 05:44:10;;;;;;;;;0.00;0.00;;;;;12.64;79.17;99386.88;4944027;28;45284;-54
2021/12/04 05:46:46;;;;;;;;;0.00;0.00;;;;;12.64;79.52;99403.00;4943120;28;45365;-55
2021/12/04 05:56:56;;;;;;;;;1.25;0.00;;;;;12.69;78.98;99405.31;4943261;28;45329;-55
2021/12/04 05:59:21;;;;;;;;;0.00;0.00;;;;;12.70;79.07;99402.53;4943164;28;46273;-54
2021/12/04 06:01:47;;;;;;;;;0.00;0.00;;;;;12.69;79.47;99406.19;4925437;28;45256;-56
2021/12/04 06:04:12;;;;;;;;;0.00;0.00;;;;;12.71;79.42;99408.75;4943312;28;45526;-55
2021/12/04 06:06:37;;;;;;;;;0.00;0.00;;;;;12.65;78.64;99395.78;4943206;28;45471;-54
2021/12/04 06:09:04;;;;;;;;;0.00;0.00;;;;;12.68;78.55;99407.16;4943261;28;46128;-55
2021/12/04 06:11:31;;;;;;;;;0.00;0.00;;;;;12.64;78.60;99403.00;4943261;28;45173;-55
2021/12/04 06:13:57;;;;;;;;;0.00;0.00;;;;;12.61;78.44;99395.16;4943373;28;45243;-54
2021/12/04 06:16:22;;;;;;;;;0.00;0.00;;;;;12.66;78.73;99397.50;4942639;28;45244;-56
2021/12/04 06:18:52;;;;;;;;;0.25;0.00;;;;;12.65;78.64;99398.47;4943005;28;46314;-55
2021/12/04 06:24:04;;;;;;;;;0.50;0.00;;;;;12.70;78.62;99391.78;4942884;28;45316;-53
2021/12/04 06:26:30;;;;;;;;;1.00;0.00;;;;;12.67;78.99;99383.09;4942989;28;45407;-56
2021/12/04 06:28:55;;;;;;;;;0.00;0.00;;;;;12.67;78.75;99381.25;4942883;28;45268;-54
2021/12/04 06:31:21;;;;;;;;;0.00;0.00;;;;;12.69;78.69;99381.97;4942464;28;45510;-52
2021/12/04 06:33:46;;;;;;;;;0.00;0.00;;;;;12.69;79.01;99368.53;4943086;28;45174;-54
2021/12/04 06:36:12;;;;;;;;;0.00;0.00;;;;;12.73;78.99;99374.56;4942970;28;45355;-52
2021/12/04 06:38:37;;;;;;;;;0.00;0.00;;;;;12.73;78.76;99375.41;4942631;28;46175;-53
2021/12/04 06:41:05;;;;;;;;;0.75;0.00;;;;;12.72;79.19;99370.16;4943074;28;45224;-54
2021/12/04 06:43:31;;;;;;;;;0.00;0.00;;;;;12.72;79.22;99373.69;4942809;28;45344;-54
2021/12/04 06:46:01;;;;;;;;;0.00;0.00;;;;;12.73;79.21;99367.34;4942145;28;45538;-54
2021/12/04 06:48:43;;;;;;;;;0.00;0.00;;;;;12.71;79.11;99371.97;4942459;28;46116;-51
2021/12/04 06:51:20;;;;;;;;;0.00;0.00;;;;;12.71;79.33;99373.81;4942522;28;45344;-54
2021/12/04 06:54:22;;;;;;;;;0.00;0.00;;;;;12.71;79.88;99371.13;4942656;28;45239;-51
2021/12/04 06:56:41;;;;;;;;;0.50;0.00;;;;;12.66;80.36;99359.88;4940106;28;45487;-54
2021/12/04 06:59:11;;;;;;;;;0.00;0.00;;;;;12.64;81.34;99353.75;4942470;28;47009;-54
2021/12/04 07:01:39;;;;;;;;;0.00;0.00;;;;;12.58;81.57;99357.75;4941995;28;45271;-53
2021/12/04 07:04:06;;;;;;;;;0.00;0.00;;;;;12.58;81.82;99363.16;4942658;28;45252;-55
2021/12/04 07:06:31;;;;;;;;;0.00;0.00;;;;;12.55;82.05;99366.06;4942374;28;45897;-55
2021/12/04 07:08:58;;;;;;;;;1.00;0.00;;;;;12.51;82.20;99361.88;4942161;28;46203;-52
2021/12/04 07:11:25;;;;;;;;;0.00;0.00;;;;;12.47;82.59;99345.13;4942229;28;45492;-55
2021/12/04 07:13:51;;;;;;;;;0.00;0.00;;;;;12.54;82.66;99347.34;4942377;28;45288;-54
2021/12/04 07:16:19;;;;;;;;;0.00;0.00;;;;;12.53;83.08;99365.31;4941580;28;45301;-56
2021/12/04 07:18:45;;;;;;;;;0.00;0.00;;;;;12.59;82.82;99356.75;4942185;28;46089;-56
2021/12/04 07:21:10;;;;;;;;;0.00;0.00;;;;;12.54;83.11;99342.84;4924729;28;45615;-53
2021/12/04 07:23:36;;;;;;;;;0.00;0.00;;;;;12.52;83.17;99347.47;4942320;28;45289;-54
2021/12/04 07:26:02;;;;;;;;;0.00;0.00;;;;;12.49;83.12;99327.06;4941929;28;45272;-54
2021/12/04 07:28:27;;;;;;;;;0.00;0.00;;;;;12.50;83.05;99336.81;4924739;28;46130;-52
2021/12/04 07:30:53;;;;;;;;;0.00;0.00;;;;;12.48;83.55;99351.38;4941197;28;45357;-54
2021/12/04 07:33:19;;;;;;;;;0.00;0.00;;;;;12.47;83.70;99338.91;4942120;28;45225;-54
2021/12/04 07:35:44;;;;;;;;;0.00;0.00;;;;;12.48;83.55;99346.84;4941157;28;45451;-53
2021/12/04 07:38:10;;;;;;;;;0.50;0.00;;;;;12.49;84.30;99351.25;4941804;28;46253;-53
2021/12/04 07:40:39;;;;;;;;;0.00;0.00;;;;;12.53;84.05;99346.50;4941569;28;45558;-52
2021/12/04 07:43:05;;;;;;;;;0.00;0.00;;;;;12.45;83.96;99332.78;4941941;28;45367;-53
2021/12/04 07:45:31;;;;;;;;;0.00;0.00;;;;;12.40;83.84;99357.31;4941264;28;45692;-55
2021/12/04 07:47:56;;;;;;;;;0.00;0.00;;;;;12.38;83.73;99343.13;4941529;28;45166;-53
2021/12/04 07:50:22;;;;;;;;;0.50;0.00;;;;;12.40;83.58;99353.78;4941573;28;45310;-54
2021/12/04 07:52:47;;;;;;;;;0.00;0.00;;;;;12.39;82.89;99354.75;4941840;28;45333;-53
2021/12/04 07:55:13;;;;;;;;;0.00;0.00;;;;;12.42;83.32;99363.41;4941266;28;45454;-51
2021/12/04 07:57:38;;;;;;;;;0.00;0.00;;;;;12.44;83.08;99347.19;4941308;28;45306;-55
2021/12/04 08:00:06;;;;;;;;;1.00;0.00;;;;;12.47;82.92;99350.50;4941271;28;45240;-58
2021/12/04 08:02:32;;;;;;;;;0.00;0.00;;;;;12.48;81.80;99364.81;4941532;28;45315;-56
2021/12/04 08:04:57;;;;;;;;;0.00;0.00;;;;;12.49;81.61;99353.09;4941111;28;45339;-57
2021/12/04 08:07:22;;;;;;;;;0.00;0.00;;;;;12.56;81.01;99366.91;4941425;28;45299;-57
2021/12/04 08:09:48;;;;;;;;;0.00;0.00;;;;;12.58;80.18;99362.28;4941424;28;45404;-57
2021/12/04 08:12:13;;;;;;;;;0.00;0.00;;;;;12.56;79.75;99348.94;4941607;28;45619;-55
2021/12/04 08:14:39;;;;;;;;;0.00;0.00;;;;;12.58;79.46;99360.47;4944071;28;45667;-54
2021/12/04 08:17:05;;;;;;;;;0.00;0.00;;;;;12.59;79.87;99355.94;4949364;28;45356;-58
2021/12/04 08:19:31;;;;;;;;;1.00;0.00;;;;;12.64;79.27;99384.19;4943003;28;45535;-51
2021/12/04 08:21:57;;;;;;;;;0.00;0.00;;;;;12.62;79.73;99367.28;4941157;28;45269;-52
2021/12/04 08:24:22;;;;;;;;;0.00;0.00;;;;;12.64;79.83;99376.13;4945159;28;45249;-53
2021/12/04 08:26:48;;;;;;;;;0.00;0.00;;;;;12.54;80.21;99398.44;4949929;28;45331;-55
2021/12/04 08:29:13;;;;;;;;;1.00;0.00;;;;;12.52;80.17;99388.63;4941123;28;45239;-52
2021/12/04 08:31:39;;;;;;;;;0.00;0.00;;;;;12.55;79.46;99402.84;4940606;28;45249;-51
2021/12/04 08:34:05;;;;;;;;;0.00;0.00;;;;;12.58;78.85;99406.16;4941136;28;46015;-56
2021/12/04 08:36:32;;;;;;;;;1.00;0.00;;;;;12.54;79.11;99407.34;4941216;28;46199;-53
2021/12/04 08:38:59;;;;;;;;;0.00;0.00;;;;;12.49;77.55;99406.84;4945519;28;45458;-54
2021/12/04 08:41:25;;;;;;;;;0.00;0.00;;;;;12.51;77.90;99413.81;4940923;28;45205;-51
2021/12/04 08:43:53;;;;;;;;;0.00;0.00;;;;;12.51;76.59;99402.19;4940632;28;45327;-53
2021/12/04 08:46:20;;;;;;;;;0.00;0.00;;;;;12.44;77.07;99414.38;4940277;28;46806;-50
2021/12/04 08:48:47;;;;;;;;;1.00;0.00;;;;;12.48;75.54;99402.44;4943514;28;45478;-49
2021/12/04 08:51:12;;;;;;;;;0.00;0.00;;;;;12.44;75.97;99414.38;4943600;28;45412;-52
2021/12/04 08:53:38;;;;;;;;;0.00;0.00;;;;;12.41;75.35;99417.31;4933694;28;46996;-51
2021/12/04 08:56:04;;;;;;;;;0.00;0.00;;;;;12.38;75.84;99428.28;4951141;28;45315;-54
2021/12/04 08:58:29;;;;;;;;;0.00;0.00;;;;;12.41;76.20;99439.69;4926861;28;45427;-50
2021/12/04 09:00:59;;;;;;;;;0.00;0.00;;;;;12.26;75.51;99431.88;4943984;28;45351;-50
2021/12/04 09:03:32;;;;;;;;;0.00;0.00;;;;;12.34;74.16;99443.75;4943894;28;45494;-52
2021/12/04 09:05:58;;;;;;;;;0.00;0.00;;;;;12.17;73.76;99435.22;4944027;28;45482;-53
2021/12/04 09:08:26;;;;;;;;;0.00;0.00;;;;;12.17;72.07;99457.56;4943927;28;45252;-53
2021/12/04 09:10:53;;;;;;;;;0.50;0.00;;;;;12.13;72.38;99467.72;4944062;28;45332;-50
2021/12/04 09:13:19;;;;;;;;;0.00;0.00;;;;;12.09;72.60;99458.13;4944120;28;45311;-52
2021/12/04 09:15:45;;;;;;;;;0.00;0.00;;;;;12.06;70.82;99474.50;4943709;28;46399;-52
2021/12/04 09:18:10;;;;;;;;;0.00;0.00;;;;;12.00;71.25;99485.66;4944250;28;45371;-51
2021/12/04 09:20:36;;;;;;;;;0.00;0.00;;;;;12.05;70.92;99486.22;4943526;28;45437;-51
2021/12/04 09:23:04;;;;;;;;;1.00;0.00;;;;;12.02;70.91;99482.88;4944028;28;45943;-50
2021/12/04 09:25:32;;;;;;;;;1.00;0.00;;;;;12.01;70.38;99505.31;4943882;28;46053;-50
2021/12/04 10:32:55;;;;;;;;;0.00;0.00;;;;;12.08;65.18;99563.88;4941717;28;45519;-59
2021/12/04 10:35:02;;;;;;;;;1.00;0.00;;;;;12.16;65.98;99581.31;4935599;28;45342;-59
2021/12/04 10:37:29;;;;;;;;;1.75;0.00;;;;;12.04;64.64;99566.91;4942579;28;45252;-58
2021/12/04 10:40:03;;;;;;;;;2.50;0.00;;;;;11.98;63.95;99584.31;4942493;28;45413;-59
2021/12/04 10:42:40;;;;;;;;;0.50;0.00;;;;;11.81;64.26;99557.78;4942579;28;45403;-60
2021/12/04 10:45:06;;;;;;;;;0.00;0.00;;;;;11.88;65.30;99580.56;4942311;28;45189;-59
2021/12/04 10:47:31;;;;;;;;;0.00;0.00;;;;;11.90;65.28;99577.75;4941690;28;45577;-61
2021/12/04 10:50:34;;;;;;;;;1.00;0.00;;;;;11.89;65.76;99576.91;4941028;28;47242;-59
2021/12/04 10:53:03;;;;;;;;;0.00;0.00;;;;;11.90;65.97;99583.13;4942121;28;45407;-60
2021/12/04 10:55:52;;;;;;;;;0.75;0.75;;;;;11.87;66.76;99588.72;4942607;28;45493;-59
2021/12/04 11:03:56;;;;;;;;;0.00;0.00;;;;;11.70;68.12;99593.38;4941878;28;45282;-60
2021/12/04 11:42:41;;;;;;;;;0.00;0.00;;;;;10.76;71.16;99658.72;4941866;28;45261;-60
2021/12/04 11:45:17;;;;;;;;;1.00;0.00;;;;;10.65;71.84;99654.97;4941302;28;47128;-60
2021/12/04 11:47:45;;;;;;;;;2.75;1.00;;;;;10.63;71.57;99662.28;4941007;28;45307;-52
2021/12/04 11:50:35;;;;;;;;;1.75;0.75;;;;;10.55;72.02;99652.88;4941249;28;45357;-52
2021/12/04 11:53:05;;;;;;;;;1.00;0.75;;;;;10.65;72.83;99661.22;4939949;28;45495;-55
2021/12/04 11:55:34;;;;;;;;;2.50;1.00;;;;;10.69;72.46;99668.13;4941618;28;45474;-51
2021/12/04 11:58:00;;;;;;;;;0.75;0.75;;;;;10.71;72.12;99673.38;4941282;28;45352;-52
2021/12/04 12:00:32;;;;;;;;;3.00;1.25;;;;;10.81;71.60;99678.03;4940671;28;45326;-54
2021/12/04 12:03:14;;;;;;;;;3.00;1.25;;;;;10.77;70.72;99689.06;4941996;28;45286;-53
2021/12/04 12:05:50;;;;;;;;;2.00;1.00;;;;;10.77;70.89;99686.38;4931408;28;46611;-52
2021/12/04 12:08:43;;;;;;;;;2.50;1.00;;;;;10.80;70.00;99683.53;4939671;28;45472;-51
2021/12/04 12:11:10;;;;;;;;;1.25;1.25;;;;;10.79;70.12;99684.47;4941206;28;45376;-54
2021/12/04 12:13:45;;;;;;;;;4.00;1.00;;;;;10.83;69.37;99684.16;4940584;28;45478;-55
2021/12/04 12:16:25;;;;;;;;;2.00;1.00;;;;;10.81;68.07;99687.91;4940876;28;46082;-52
2021/12/04 12:18:58;;;;;;;;;2.00;1.00;;;;;10.83;68.06;99705.63;4940210;28;45615;-53
2021/12/04 12:21:44;;;;;;;;;1.00;1.00;;;;;10.85;66.71;99709.06;4939378;28;45524;-53
2021/12/04 12:27:05;;;;;;;;;1.00;0.25;;;;;10.91;65.81;99727.44;4940050;28;45407;-53
2021/12/04 12:33:11;;;;;;;;;1.00;1.00;;;;;10.87;65.08;99746.53;4940840;28;45482;-54
2021/12/04 12:38:53;;;;;;;;;0.75;0.75;;;;;10.83;65.81;99739.59;4881701;29;46171;-55
2021/12/04 12:41:38;;;;;;;;;2.50;2.00;;;;;10.95;64.31;99763.84;4911636;28;45404;-53
2021/12/04 12:44:25;;;;;;;;;4.00;2.75;;;;;10.94;64.14;99766.63;4940442;28;45498;-54
2021/12/04 12:46:53;;;;;;;;;3.50;2.50;;;;;10.97;63.84;99769.13;4940463;28;45170;-52
2021/12/04 12:49:24;;;;;;;;;3.25;2.00;;;;;11.09;64.13;99778.19;4940410;28;45268;-51
2021/12/04 12:51:54;;;;;;;;;2.75;1.50;;;;;11.20;63.07;99789.13;4940172;28;45273;-52
2021/12/04 12:54:45;;;;;;;;;2.75;1.75;;;;;11.25;63.52;99793.22;4940676;28;45407;-54
2021/12/04 12:57:12;;;;;;;;;3.00;2.00;;;;;11.26;62.71;99786.91;4939336;28;45377;-52
2021/12/04 12:59:57;;;;;;;;;6.25;2.00;;;;;11.12;61.61;99791.41;4940347;28;47310;-52
2021/12/04 13:14:09;;;;;;;;;1.25;1.25;;;;;10.66;59.52;99798.78;4940512;28;45339;-53
2021/12/04 13:16:35;;;;;;;;;5.75;1.50;;;;;10.67;60.53;99800.50;4940264;28;45333;-54
2021/12/04 13:19:08;;;;;;;;;3.00;1.00;;;;;10.64;59.62;99785.47;4939852;28;45427;-51
2021/12/04 13:21:36;;;;;;;;;2.25;1.75;;;;;10.66;61.05;99796.94;4939849;28;47158;-55
2021/12/04 13:24:02;;;;;;;;;2.50;1.75;;;;;10.61;58.98;99794.56;4940110;28;45490;-51
2021/12/04 13:26:32;;;;;;;;;1.50;1.00;;;;;10.50;58.97;99780.94;4940710;28;45309;-51
2021/12/04 13:29:00;;;;;;;;;5.25;1.75;;;;;10.59;58.13;99812.56;4940065;28;45429;-53
2021/12/04 13:31:26;;;;;;;;;2.00;1.25;;;;;10.56;56.73;99793.97;4940150;28;47234;-55
2021/12/04 13:33:53;;;;;;;;;4.00;1.00;;;;;10.60;56.66;99795.53;4940369;28;45304;-54
2021/12/04 13:36:22;;;;;;;;;5.50;1.00;;;;;10.60;56.87;99795.53;4943654;28;45225;-53
2021/12/04 13:38:58;;;;;;;;;5.00;1.75;;;;;10.71;57.43;99805.59;4943329;28;46367;-51
2021/12/04 13:41:24;;;;;;;;;1.00;0.75;;;;;10.69;56.70;99807.50;4943414;28;45325;-54
2021/12/04 13:43:54;;;;;;;;;5.25;2.50;;;;;10.71;55.45;99815.44;4943476;28;45240;-55
2021/12/04 13:46:19;;;;;;;;;2.00;2.00;;;;;10.69;56.99;99785.19;4943337;28;45355;-54
2021/12/04 13:48:45;;;;;;;;;0.00;0.00;;;;;10.68;56.15;99788.81;4943465;28;45230;-55
2021/12/04 13:51:11;;;;;;;;;2.50;2.25;;;;;10.71;56.32;99777.94;4942612;28;45991;-55
2021/12/04 13:53:40;;;;;;;;;3.00;2.00;;;;;10.82;56.52;99787.00;4943183;28;45371;-57
2021/12/04 13:56:10;;;;;;;;;2.00;0.00;;;;;10.85;55.83;99788.66;4943183;28;45181;-55
2021/12/04 13:58:56;;;;;;;;;2.00;0.00;;;;;10.91;55.88;99780.22;4943206;28;45266;-57
2021/12/04 14:01:23;;;;;;;;;4.75;1.00;;;;;11.06;55.35;99786.44;4942665;28;46372;-55
2021/12/04 14:03:48;;;;;;;;;4.00;2.00;;;;;11.19;55.39;99773.97;4943172;28;45651;-55
2021/12/04 14:06:18;;;;;;;;;2.00;1.00;;;;;11.26;54.74;99778.84;4943303;28;45314;-54
2021/12/04 14:08:58;;;;;;;;;2.00;2.00;;;;;11.03;53.68;99763.34;4943379;28;45210;-56
2021/12/04 14:11:36;;;;;;;;;3.00;1.25;;;;;11.15;53.69;99793.88;4942925;28;46042;-56
2021/12/04 14:14:13;;;;;;;;;5.75;1.25;;;;;11.13;54.00;99788.66;4943144;28;45344;-57
2021/12/04 14:16:40;;;;;;;;;1.00;0.00;;;;;11.12;54.04;99794.09;4942898;28;45287;-57
2021/12/04 14:19:17;;;;;;;;;2.00;2.00;;;;;11.03;53.89;99811.63;4942759;28;45313;-58
2021/12/04 14:21:55;;;;;;;;;4.25;2.50;;;;;11.05;52.48;99812.41;4942890;28;45610;-58
2021/12/04 14:24:53;;;;;;;;;1.50;1.00;;;;;11.01;53.30;99816.22;4942624;28;45331;-57
2021/12/04 14:27:25;;;;;;;;;0.00;0.00;;;;;11.00;52.77;99833.28;4942902;28;45495;-59
2021/12/04 14:30:00;;;;;;;;;2.00;0.50;;;;;10.93;52.95;99837.28;4943002;28;45376;-58
2021/12/04 14:32:28;;;;;;;;;1.00;1.00;;;;;11.04;53.31;99839.31;4942337;28;46439;-57
2021/12/04 14:34:56;;;;;;;;;4.00;2.75;;;;;11.07;51.58;99836.44;4942937;28;45182;-58
2021/12/04 14:37:22;;;;;;;;;5.50;1.00;;;;;11.22;50.61;99851.59;4942879;28;45495;-58
2021/12/04 14:39:49;;;;;;;;;1.25;0.00;;;;;11.26;51.11;99847.75;4942800;28;45528;-58
2021/12/04 14:42:25;;;;;;;;;5.00;2.00;;;;;11.23;50.87;99847.91;4942693;28;45358;-57
2021/12/04 14:45:00;;;;;;;;;4.00;1.00;;;;;11.16;50.52;99860.00;4942425;28;45387;-57
2021/12/04 14:47:31;;;;;;;;;2.00;1.00;;;;;11.10;51.84;99858.56;4942171;28;45629;-58
2021/12/04 14:50:00;;;;;;;;;2.00;1.00;;;;;11.18;52.19;99863.47;4942141;28;45400;-57
2021/12/04 14:52:28;;;;;;;;;1.00;1.00;;;;;11.12;52.02;99880.81;4942505;28;46031;-58
2021/12/04 14:54:56;;;;;;;;;1.25;1.25;;;;;11.02;51.04;99882.31;4942306;28;45403;-57
2021/12/04 14:57:26;;;;;;;;;1.00;1.00;;;;;10.95;52.79;99892.56;4942627;28;45324;-58
2021/12/04 15:00:10;;;;;;;;;7.00;2.00;;;;;10.90;52.09;99885.75;4942196;28;45509;-58
2021/12/04 15:02:36;;;;;;;;;0.00;0.00;;;;;10.84;50.58;99894.16;4942492;28;45466;-58
2021/12/04 15:05:05;;;;;;;;;4.00;0.00;;;;;10.69;51.12;99895.09;4942230;28;45353;-57
2021/12/04 15:07:33;;;;;;;;;3.00;1.00;;;;;10.60;51.68;99904.53;4942492;28;45325;-57
2021/12/04 15:10:04;;;;;;;;;0.50;0.50;;;;;10.56;51.04;99911.03;4924848;28;45410;-57
2021/12/04 15:12:35;;;;;;;;;2.00;1.00;;;;;10.57;52.06;99913.63;4942227;28;45222;-58
2021/12/04 15:15:07;;;;;;;;;0.50;0.50;;;;;10.64;52.62;99924.84;4942445;28;45388;-58
2021/12/04 15:17:33;;;;;;;;;3.50;1.00;;;;;10.58;51.82;99925.22;4942066;28;45330;-57
2021/12/04 15:20:11;;;;;;;;;1.25;0.00;;;;;10.49;51.79;99934.66;4941937;28;46179;-58
2021/12/04 15:22:43;;;;;;;;;1.50;0.25;;;;;10.45;52.95;99934.94;4942033;28;46234;-58
2021/12/04 15:25:15;;;;;;;;;0.00;0.00;;;;;10.39;53.02;99936.13;4941969;28;45407;-57
2021/12/04 15:27:41;;;;;;;;;0.50;0.50;;;;;10.19;53.38;99948.00;4942241;28;45365;-57
2021/12/04 15:30:10;;;;;;;;;1.00;1.00;;;;;10.05;53.80;99950.56;4941907;28;45502;-57
2021/12/04 15:32:39;;;;;;;;;0.25;0.25;;;;;9.92;54.09;99964.72;4941764;28;46108;-57
2021/12/04 15:35:33;;;;;;;;;3.50;1.00;;;;;9.74;55.01;99959.44;4941929;28;45463;-57
2021/12/04 15:38:11;;;;;;;;;1.00;0.00;;;;;9.62;56.11;99965.44;4942258;28;45237;-60
2021/12/04 15:40:59;;;;;;;;;1.75;0.00;;;;;9.47;56.71;99968.97;4941569;28;46102;-58
2021/12/04 15:46:29;;;;;;;;;1.00;0.00;;;;;9.19;56.49;99961.53;4941522;28;45332;-57
2021/12/04 15:54:12;;;;;;;;;0.25;0.00;;;;;9.07;57.00;99960.38;4941769;28;45312;-58
2021/12/04 15:56:46;;;;;;;;;0.75;0.00;;;;;8.99;57.01;99964.41;4941112;28;45332;-57
2021/12/04 15:59:21;;;;;;;;;1.25;0.00;;;;;8.93;57.08;99972.75;4941756;28;45375;-59
2021/12/04 16:01:50;;;;;;;;;2.00;0.00;;;;;8.78;57.38;99955.66;4941101;28;45567;-57
2021/12/04 16:04:27;;;;;;;;;1.00;0.00;;;;;8.82;57.74;99961.72;4941263;28;45350;-57
2021/12/04 16:06:55;;;;;;;;;0.25;0.25;;;;;8.81;58.18;99986.72;4929837;28;45419;-59
2021/12/04 16:09:33;;;;;;;;;0.00;0.00;;;;;8.78;58.09;99976.19;4941429;28;45307;-59
2021/12/04 16:12:05;;;;;;;;;0.00;0.00;;;;;8.68;58.66;99975.78;4941194;28;45406;-58
2021/12/04 16:14:36;;;;;;;;;3.00;0.00;;;;;8.69;58.68;99981.03;4941255;28;46188;-58
2021/12/04 16:17:04;;;;;;;;;0.00;0.00;;;;;8.61;59.26;99985.91;4940910;28;45274;-58
2021/12/04 16:19:32;;;;;;;;;0.00;0.00;;;;;8.47;59.03;99974.19;4941269;28;45358;-59
2021/12/04 16:22:01;;;;;;;;;0.00;0.00;;;;;8.58;59.67;99995.91;4941041;28;46446;-59
2021/12/04 16:24:31;;;;;;;;;1.00;0.00;;;;;8.54;59.65;99996.97;4941055;28;46941;-57
2021/12/04 16:27:04;;;;;;;;;5.00;0.00;;;;;8.48;60.11;100005.31;4941119;28;45490;-59
2021/12/04 16:29:35;;;;;;;;;0.50;0.25;;;;;8.40;59.66;99995.00;4941253;28;45320;-58
2021/12/04 16:38:05;;;;;;;;;2.00;1.00;;;;;8.40;59.72;100021.72;4941021;28;45329;-59
2021/12/04 16:40:34;;;;;;;;;1.50;0.00;;;;;8.37;58.65;100031.66;4933560;28;46751;-59
2021/12/04 16:43:14;;;;;;;;;1.00;1.00;;;;;8.33;58.74;100055.00;4937452;28;45522;-59
2021/12/04 16:46:02;;;;;;;;;1.75;1.00;;;;;8.31;58.79;100072.88;4937752;28;45819;-58
2021/12/04 16:48:32;;;;;;;;;0.25;0.25;;;;;8.27;58.60;100097.94;4938291;28;45476;-59
2021/12/04 16:59:14;;;;;;;;;0.00;0.00;;;;;7.81;62.62;100155.25;4928341;28;45722;-58
2021/12/04 17:01:49;;;;;;;;;0.00;0.00;;;;;7.60;65.65;100115.22;4938444;28;45674;-60
2021/12/04 17:04:16;;;;;;;;;0.00;0.00;;;;;7.45;65.80;100099.03;4938879;28;45395;-63
2021/12/04 17:06:44;;;;;;;;;0.00;0.00;;;;;7.36;66.76;100099.41;4938714;28;46302;-57
2021/12/04 17:09:10;;;;;;;;;0.00;0.00;;;;;7.18;66.81;100085.94;4939535;28;45419;-59
2021/12/04 17:11:37;;;;;;;;;0.00;0.00;;;;;7.07;68.33;100066.88;4942303;28;45376;-58
2021/12/04 17:14:03;;;;;;;;;0.00;0.00;;;;;7.14;66.62;100076.34;4941882;28;45700;-59
2021/12/04 17:16:28;;;;;;;;;0.25;0.25;;;;;7.29;68.52;100089.97;4940778;28;46152;-58
2021/12/04 17:19:00;;;;;;;;;0.00;0.00;;;;;7.35;67.80;100081.69;4941784;28;45703;-58
2021/12/04 17:21:25;;;;;;;;;0.00;0.00;;;;;7.34;67.15;100071.94;4942169;28;45361;-58
2021/12/04 17:23:51;;;;;;;;;0.00;0.00;;;;;7.22;66.96;100060.03;4942084;28;45774;-59
2021/12/04 17:26:17;;;;;;;;;1.00;0.00;;;;;7.27;66.31;100065.16;4942330;28;45313;-58
2021/12/04 17:28:44;;;;;;;;;3.00;0.00;;;;;7.33;66.40;100062.22;4941735;28;45386;-57
2021/12/04 17:31:16;;;;;;;;;0.00;0.00;;;;;7.35;66.61;100087.88;4941458;28;45662;-55
2021/12/04 17:33:41;;;;;;;;;1.00;0.00;;;;;7.32;65.15;100089.81;4941304;28;45402;-58
2021/12/04 17:36:07;;;;;;;;;2.50;0.50;;;;;7.36;66.44;100083.41;4942069;28;46290;-56
2021/12/04 17:38:32;;;;;;;;;0.75;0.75;;;;;7.27;66.15;100057.16;4941541;28;45384;-57
2021/12/04 17:40:57;;;;;;;;;0.75;0.75;;;;;7.37;66.10;100091.38;4942405;28;45554;-59
2021/12/04 17:43:23;;;;;;;;;0.00;0.00;;;;;7.20;66.27;100065.44;4943225;28;45436;-56
2021/12/04 17:45:48;;;;;;;;;0.25;0.00;;;;;7.38;66.00;100082.44;4943215;28;45216;-52
2021/12/04 17:48:14;;;;;;;;;2.00;0.50;;;;;7.43;66.18;100093.75;4943180;28;45275;-59
2021/12/04 17:50:42;;;;;;;;;2.50;0.75;;;;;7.48;66.16;100085.56;4943470;28;45207;-57
2021/12/04 17:53:08;;;;;;;;;2.00;1.00;;;;;7.47;66.61;100091.84;4943194;28;45590;-58
2021/12/04 17:55:34;;;;;;;;;1.00;1.00;;;;;7.52;66.15;100095.16;4943223;28;45457;-57
2021/12/04 17:57:59;;;;;;;;;5.25;2.00;;;;;7.55;65.86;100108.38;4941822;28;45371;-59
2021/12/04 18:00:29;;;;;;;;;3.00;3.00;;;;;7.56;66.36;100112.78;4941912;28;45569;-58
2021/12/04 18:02:55;;;;;;;;;58.50;43.25;;;;;7.63;66.64;100119.56;4942810;28;45540;-59
2021/12/04 18:05:24;;;;;;;;;37.50;36.25;;;;;7.65;66.43;100130.19;4942713;28;46617;-58
2021/12/04 18:07:52;;;;;;;;;21.25;16.00;;;;;7.57;66.92;100128.69;4942832;28;45311;-58
2021/12/04 18:10:19;;;;;;;;;21.25;16.75;;;;;7.52;67.14;100124.50;4941767;28;45366;-58
2021/12/04 18:12:48;;;;;;;;;15.00;11.00;;;;;7.56;67.67;100131.44;4942060;28;46381;-57
2021/12/04 18:15:20;;;;;;;;;26.25;24.75;;;;;7.55;67.73;100129.72;4941848;28;46079;-59
2021/12/04 18:17:46;;;;;;;;;34.50;23.00;;;;;7.55;67.22;100138.56;4942192;28;45385;-58
2021/12/04 18:20:11;;;;;;;;;34.25;26.50;;;;;7.58;68.50;100135.75;4941607;28;45423;-58
2021/12/04 18:22:37;;;;;;;;;34.75;23.75;;;;;7.61;68.67;100137.44;4941890;28;45598;-59
2021/12/04 18:25:04;;;;;;;;;16.50;13.50;;;;;7.62;67.83;100133.84;4942511;28;46060;-57
2021/12/04 18:27:34;;;;;;;;;23.75;21.25;;;;;7.65;68.23;100144.38;4942784;28;45268;-57
2021/12/04 18:29:59;;;;;;;;;24.50;18.25;;;;;7.67;68.21;100128.28;4942630;28;45502;-59
2021/12/04 18:32:25;;;;;;;;;13.75;12.50;;;;;7.78;67.38;100142.91;4925091;28;45447;-56
2021/12/04 18:34:50;;;;;;;;;11.25;8.75;;;;;7.72;67.99;100129.84;4942684;28;45232;-58
2021/12/04 18:37:15;;;;;;;;;5.00;5.00;;;;;7.58;66.83;100116.22;4942734;28;45240;-58
2021/12/04 18:39:41;;;;;;;;;13.75;6.00;;;;;7.50;67.69;100116.56;4942758;28;45587;-57
2021/12/04 18:42:07;;;;;;;;;9.50;7.00;;;;;7.54;67.77;100127.97;4942547;28;45263;-58
2021/12/04 18:44:34;;;;;;;;;7.00;4.25;;;;;7.53;68.46;100124.44;4942532;28;46631;-58
2021/12/04 18:47:00;;;;;;;;;5.50;5.00;;;;;7.58;68.23;100135.75;4941878;28;45409;-58
2021/12/04 18:49:27;;;;;;;;;8.75;6.25;;;;;7.61;68.76;100121.44;4942681;28;45547;-58
2021/12/04 18:51:54;;;;;;;;;2.75;2.75;;;;;7.73;68.20;100118.25;4942529;28;45186;-58
2021/12/04 18:54:22;;;;;;;;;7.25;6.50;;;;;7.71;67.88;100128.09;4942650;28;46945;-58
2021/12/04 18:56:47;;;;;;;;;9.75;7.25;;;;;7.71;67.79;100127.22;4942469;28;45505;-58
2021/12/04 18:59:13;;;;;;;;;10.75;7.00;;;;;7.67;68.11;100131.81;4942763;28;45350;-57
2021/12/04 19:01:39;;;;;;;;;11.50;7.25;;;;;7.56;67.84;100120.78;4941833;28;45395;-58
2021/12/04 19:04:06;;;;;;;;;10.25;10.00;;;;;7.60;68.38;100125.91;4942338;28;45253;-56
2021/12/04 19:06:36;;;;;;;;;6.75;6.75;;;;;7.55;68.78;100124.38;4942174;28;45268;-57
2021/12/04 19:09:01;;;;;;;;;9.00;8.00;;;;;7.54;68.87;100130.63;4942617;28;45308;-58
2021/12/04 19:11:26;;;;;;;;;7.00;6.75;;;;;7.47;68.95;100115.84;4942114;28;45352;-56
2021/12/04 19:13:53;;;;;;;;;6.00;5.75;;;;;7.38;69.08;100117.09;4942237;28;46232;-56
2021/12/04 19:16:20;;;;;;;;;11.50;7.00;;;;;7.49;68.96;100125.47;4941675;28;45397;-58
2021/12/04 19:18:45;;;;;;;;;7.25;5.25;;;;;7.37;69.10;100114.50;4942470;28;45372;-58
2021/12/04 19:21:11;;;;;;;;;18.00;10.75;;;;;7.32;69.43;100121.81;4941693;28;45398;-58
2021/12/04 19:23:38;;;;;;;;;10.25;9.75;;;;;7.25;69.70;100112.34;4942067;28;45421;-57
2021/12/04 19:26:04;;;;;;;;;10.50;6.00;;;;;7.22;69.66;100116.88;4941911;28;45248;-57